sensor_id;sensor_type;location;lat;lon;timestamp;P1;durP1;ratioP1;P2;durP2;ratioP2
32641;SDS011;19323;56.072;9.698;2022-12-28T00:00:55;1.15;;;0.55;;
32641;SDS011;19323;56.072;9.698;2022-12-28T00:03:20;0.47;;;0.22;;
32641;SDS011;19323;56.072;9.698;2022-12-28T00:05:46;0.80;;;0.60;;
32641;SDS011;19323;56.072;9.698;2022-12-28T00:08:11;0.47;;;0.40;;
32641;SDS011;19323;56.072;9.698;2022-12-28T00:10:36;1.27;;;0.70;;
32641;SDS011;19323;56.072;9.698;2022-12-28T00:13:02;0.73;;;0.50;;
32641;SDS011;19323;56.072;9.698;2022-12-28T00:15:27;0.88;;;0.50;;
32641;SDS011;19323;56.072;9.698;2022-12-28T00:17:52;0.57;;;0.30;;
32641;SDS011;19323;56.072;9.698;2022-12-28T00:20:17;1.10;;;0.50;;
32641;SDS011;19323;56.072;9.698;2022-12-28T00:22:43;0.82;;;0.60;;
32641;SDS011;19323;56.072;9.698;2022-12-28T00:25:08;1.17;;;0.73;;
32641;SDS011;19323;56.072;9.698;2022-12-28T00:27:34;1.02;;;0.40;;
32641;SDS011;19323;56.072;9.698;2022-12-28T00:29:59;1.05;;;0.45;;
32641;SDS011;19323;56.072;9.698;2022-12-28T00:32:24;0.60;;;0.60;;
32641;SDS011;19323;56.072;9.698;2022-12-28T00:34:50;0.60;;;0.50;;
32641;SDS011;19323;56.072;9.698;2022-12-28T00:37:15;1.38;;;0.40;;
32641;SDS011;19323;56.072;9.698;2022-12-28T00:39:41;0.88;;;0.63;;
32641;SDS011;19323;56.072;9.698;2022-12-28T00:42:06;2.47;;;0.40;;
32641;SDS011;19323;56.072;9.698;2022-12-28T00:44:31;0.80;;;0.40;;
32641;SDS011;19323;56.072;9.698;2022-12-28T00:46:57;2.15;;;0.50;;
32641;SDS011;19323;56.072;9.698;2022-12-28T00:49:22;1.08;;;0.47;;
32641;SDS011;19323;56.072;9.698;2022-12-28T00:51:48;0.73;;;0.68;;
32641;SDS011;19323;56.072;9.698;2022-12-28T00:54:13;0.40;;;0.20;;
32641;SDS011;19323;56.072;9.698;2022-12-28T00:56:39;1.73;;;0.68;;
32641;SDS011;19323;56.072;9.698;2022-12-28T00:59:06;1.20;;;0.68;;
32641;SDS011;19323;56.072;9.698;2022-12-28T01:01:32;1.10;;;0.30;;
32641;SDS011;19323;56.072;9.698;2022-12-28T01:03:57;0.45;;;0.30;;
32641;SDS011;19323;56.072;9.698;2022-12-28T01:06:23;1.25;;;0.30;;
32641;SDS011;19323;56.072;9.698;2022-12-28T01:08:50;0.25;;;0.25;;
32641;SDS011;19323;56.072;9.698;2022-12-28T01:11:17;1.10;;;0.40;;
32641;SDS011;19323;56.072;9.698;2022-12-28T01:13:45;0.57;;;0.40;;
32641;SDS011;19323;56.072;9.698;2022-12-28T01:16:12;0.93;;;0.22;;
32641;SDS011;19323;56.072;9.698;2022-12-28T01:18:39;0.50;;;0.28;;
32641;SDS011;19323;56.072;9.698;2022-12-28T01:21:11;0.65;;;0.40;;
32641;SDS011;19323;56.072;9.698;2022-12-28T01:23:38;0.70;;;0.35;;
32641;SDS011;19323;56.072;9.698;2022-12-28T01:26:04;0.60;;;0.40;;
32641;SDS011;19323;56.072;9.698;2022-12-28T01:28:29;1.85;;;0.38;;
32641;SDS011;19323;56.072;9.698;2022-12-28T01:30:55;0.35;;;0.30;;
32641;SDS011;19323;56.072;9.698;2022-12-28T01:33:20;0.57;;;0.40;;
32641;SDS011;19323;56.072;9.698;2022-12-28T01:35:45;0.40;;;0.38;;
32641;SDS011;19323;56.072;9.698;2022-12-28T01:38:11;0.50;;;0.40;;
32641;SDS011;19323;56.072;9.698;2022-12-28T01:40:36;0.70;;;0.38;;
32641;SDS011;19323;56.072;9.698;2022-12-28T01:43:03;0.57;;;0.30;;
32641;SDS011;19323;56.072;9.698;2022-12-28T01:45:34;0.70;;;0.40;;
32641;SDS011;19323;56.072;9.698;2022-12-28T01:47:59;0.45;;;0.30;;
32641;SDS011;19323;56.072;9.698;2022-12-28T01:50:25;1.00;;;0.40;;
32641;SDS011;19323;56.072;9.698;2022-12-28T01:52:56;0.68;;;0.32;;
32641;SDS011;19323;56.072;9.698;2022-12-28T01:55:28;1.65;;;0.57;;
32641;SDS011;19323;56.072;9.698;2022-12-28T01:58:05;1.80;;;0.20;;
32641;SDS011;19323;56.072;9.698;2022-12-28T02:00:35;0.82;;;0.30;;
32641;SDS011;19323;56.072;9.698;2022-12-28T02:05:30;0.80;;;0.38;;
32641;SDS011;19323;56.072;9.698;2022-12-28T02:08:01;0.32;;;0.32;;
32641;SDS011;19323;56.072;9.698;2022-12-28T02:10:32;1.00;;;0.40;;
32641;SDS011;19323;56.072;9.698;2022-12-28T02:12:59;0.65;;;0.38;;
32641;SDS011;19323;56.072;9.698;2022-12-28T02:15:26;0.77;;;0.20;;
32641;SDS011;19323;56.072;9.698;2022-12-28T02:17:51;0.40;;;0.30;;
32641;SDS011;19323;56.072;9.698;2022-12-28T02:20:16;0.60;;;0.35;;
32641;SDS011;19323;56.072;9.698;2022-12-28T02:23:02;0.50;;;0.28;;
32641;SDS011;19323;56.072;9.698;2022-12-28T02:26:01;0.43;;;0.25;;
32641;SDS011;19323;56.072;9.698;2022-12-28T02:31:41;0.40;;;0.30;;
32641;SDS011;19323;56.072;9.698;2022-12-28T02:34:21;0.52;;;0.30;;
32641;SDS011;19323;56.072;9.698;2022-12-28T02:37:08;0.85;;;0.75;;
32641;SDS011;19323;56.072;9.698;2022-12-28T02:39:40;0.65;;;0.45;;
32641;SDS011;19323;56.072;9.698;2022-12-28T02:42:12;5.40;;;0.60;;
32641;SDS011;19323;56.072;9.698;2022-12-28T02:44:37;1.13;;;0.50;;
32641;SDS011;19323;56.072;9.698;2022-12-28T02:47:21;0.25;;;0.20;;
32641;SDS011;19323;56.072;9.698;2022-12-28T02:50:06;0.85;;;0.35;;
32641;SDS011;19323;56.072;9.698;2022-12-28T03:05:52;0.38;;;0.15;;
32641;SDS011;19323;56.072;9.698;2022-12-28T03:08:48;0.10;;;0.10;;
32641;SDS011;19323;56.072;9.698;2022-12-28T03:11:43;0.30;;;0.10;;
32641;SDS011;19323;56.072;9.698;2022-12-28T03:14:23;0.28;;;0.17;;
32641;SDS011;19323;56.072;9.698;2022-12-28T03:16:53;0.57;;;0.30;;
32641;SDS011;19323;56.072;9.698;2022-12-28T03:19:42;0.77;;;0.20;;
32641;SDS011;19323;56.072;9.698;2022-12-28T03:22:30;0.38;;;0.10;;
32641;SDS011;19323;56.072;9.698;2022-12-28T03:25:18;0.95;;;0.22;;
32641;SDS011;19323;56.072;9.698;2022-12-28T03:28:06;0.47;;;0.10;;
32641;SDS011;19323;56.072;9.698;2022-12-28T03:30:54;0.20;;;0.15;;
32641;SDS011;19323;56.072;9.698;2022-12-28T03:33:41;0.30;;;0.10;;
32641;SDS011;19323;56.072;9.698;2022-12-28T03:41:35;0.98;;;0.20;;
32641;SDS011;19323;56.072;9.698;2022-12-28T03:44:11;0.65;;;0.28;;
32641;SDS011;19323;56.072;9.698;2022-12-28T03:46:47;0.40;;;0.20;;
32641;SDS011;19323;56.072;9.698;2022-12-28T03:49:22;0.30;;;0.10;;
32641;SDS011;19323;56.072;9.698;2022-12-28T03:51:48;0.30;;;0.10;;
32641;SDS011;19323;56.072;9.698;2022-12-28T03:54:15;0.47;;;0.10;;
32641;SDS011;19323;56.072;9.698;2022-12-28T03:56:48;0.40;;;0.10;;
32641;SDS011;19323;56.072;9.698;2022-12-28T03:59:16;0.32;;;0.20;;
32641;SDS011;19323;56.072;9.698;2022-12-28T04:01:42;1.55;;;0.30;;
32641;SDS011;19323;56.072;9.698;2022-12-28T04:04:07;1.50;;;0.22;;
32641;SDS011;19323;56.072;9.698;2022-12-28T04:06:34;0.17;;;0.10;;
32641;SDS011;19323;56.072;9.698;2022-12-28T04:08:59;0.10;;;0.10;;
32641;SDS011;19323;56.072;9.698;2022-12-28T04:11:25;0.28;;;0.17;;
32641;SDS011;19323;56.072;9.698;2022-12-28T04:13:50;0.05;;;0.05;;
32641;SDS011;19323;56.072;9.698;2022-12-28T04:16:15;0.30;;;0.15;;
32641;SDS011;19323;56.072;9.698;2022-12-28T04:18:41;0.75;;;0.60;;
32641;SDS011;19323;56.072;9.698;2022-12-28T04:21:07;0.15;;;0.05;;
32641;SDS011;19323;56.072;9.698;2022-12-28T04:23:33;0.43;;;0.10;;
32641;SDS011;19323;56.072;9.698;2022-12-28T04:26:02;1.23;;;0.17;;
32641;SDS011;19323;56.072;9.698;2022-12-28T04:28:30;0.30;;;0.20;;
32641;SDS011;19323;56.072;9.698;2022-12-28T04:30:56;0.30;;;0.20;;
32641;SDS011;19323;56.072;9.698;2022-12-28T04:33:23;0.47;;;0.10;;
32641;SDS011;19323;56.072;9.698;2022-12-28T04:35:48;0.73;;;0.10;;
32641;SDS011;19323;56.072;9.698;2022-12-28T04:38:14;0.45;;;0.10;;
32641;SDS011;19323;56.072;9.698;2022-12-28T04:40:39;0.15;;;0.03;;
32641;SDS011;19323;56.072;9.698;2022-12-28T04:43:04;0.40;;;0.10;;
32641;SDS011;19323;56.072;9.698;2022-12-28T04:45:30;0.40;;;0.25;;
32641;SDS011;19323;56.072;9.698;2022-12-28T04:47:55;0.50;;;0.30;;
32641;SDS011;19323;56.072;9.698;2022-12-28T04:50:21;1.75;;;0.20;;
32641;SDS011;19323;56.072;9.698;2022-12-28T04:52:47;0.40;;;0.10;;
32641;SDS011;19323;56.072;9.698;2022-12-28T04:55:12;0.25;;;0.10;;
32641;SDS011;19323;56.072;9.698;2022-12-28T04:57:38;0.28;;;0.15;;
32641;SDS011;19323;56.072;9.698;2022-12-28T05:00:03;0.17;;;0.10;;
32641;SDS011;19323;56.072;9.698;2022-12-28T05:02:29;0.52;;;0.30;;
32641;SDS011;19323;56.072;9.698;2022-12-28T05:04:55;0.45;;;0.10;;
32641;SDS011;19323;56.072;9.698;2022-12-28T05:07:20;0.30;;;0.10;;
32641;SDS011;19323;56.072;9.698;2022-12-28T05:09:45;4.78;;;1.27;;
32641;SDS011;19323;56.072;9.698;2022-12-28T05:12:10;0.63;;;0.43;;
32641;SDS011;19323;56.072;9.698;2022-12-28T05:14:36;1.85;;;0.25;;
32641;SDS011;19323;56.072;9.698;2022-12-28T05:17:01;2.35;;;0.20;;
32641;SDS011;19323;56.072;9.698;2022-12-28T05:19:26;0.20;;;0.10;;
32641;SDS011;19323;56.072;9.698;2022-12-28T05:21:51;1.00;;;0.15;;
32641;SDS011;19323;56.072;9.698;2022-12-28T05:24:17;1.92;;;0.10;;
32641;SDS011;19323;56.072;9.698;2022-12-28T05:26:44;1.98;;;0.20;;
32641;SDS011;19323;56.072;9.698;2022-12-28T05:29:09;0.50;;;0.10;;
32641;SDS011;19323;56.072;9.698;2022-12-28T05:31:34;0.28;;;0.13;;
32641;SDS011;19323;56.072;9.698;2022-12-28T05:34:00;0.47;;;0.20;;
32641;SDS011;19323;56.072;9.698;2022-12-28T05:36:25;0.30;;;0.30;;
32641;SDS011;19323;56.072;9.698;2022-12-28T05:38:51;0.50;;;0.20;;
32641;SDS011;19323;56.072;9.698;2022-12-28T05:41:19;0.55;;;0.20;;
32641;SDS011;19323;56.072;9.698;2022-12-28T05:43:50;0.10;;;0.10;;
32641;SDS011;19323;56.072;9.698;2022-12-28T05:46:16;0.85;;;0.20;;
32641;SDS011;19323;56.072;9.698;2022-12-28T05:48:45;1.15;;;0.38;;
32641;SDS011;19323;56.072;9.698;2022-12-28T05:51:11;0.70;;;0.20;;
32641;SDS011;19323;56.072;9.698;2022-12-28T05:53:41;1.75;;;0.35;;
32641;SDS011;19323;56.072;9.698;2022-12-28T05:58:36;0.20;;;0.10;;
32641;SDS011;19323;56.072;9.698;2022-12-28T06:01:15;0.93;;;0.38;;
32641;SDS011;19323;56.072;9.698;2022-12-28T06:03:42;0.60;;;0.10;;
32641;SDS011;19323;56.072;9.698;2022-12-28T06:06:13;1.48;;;0.30;;
32641;SDS011;19323;56.072;9.698;2022-12-28T06:08:40;3.25;;;0.20;;
32641;SDS011;19323;56.072;9.698;2022-12-28T06:11:07;0.10;;;0.10;;
32641;SDS011;19323;56.072;9.698;2022-12-28T06:13:34;7.05;;;0.57;;
32641;SDS011;19323;56.072;9.698;2022-12-28T06:16:04;0.75;;;0.15;;
32641;SDS011;19323;56.072;9.698;2022-12-28T06:18:31;0.25;;;0.05;;
32641;SDS011;19323;56.072;9.698;2022-12-28T06:21:03;1.75;;;0.43;;
32641;SDS011;19323;56.072;9.698;2022-12-28T06:23:29;0.15;;;0.10;;
32641;SDS011;19323;56.072;9.698;2022-12-28T06:25:56;0.65;;;0.15;;
32641;SDS011;19323;56.072;9.698;2022-12-28T06:28:22;0.65;;;0.15;;
32641;SDS011;19323;56.072;9.698;2022-12-28T06:30:48;0.10;;;0.10;;
32641;SDS011;19323;56.072;9.698;2022-12-28T06:33:13;0.30;;;0.30;;
32641;SDS011;19323;56.072;9.698;2022-12-28T06:35:41;3.97;;;0.20;;
32641;SDS011;19323;56.072;9.698;2022-12-28T06:38:06;5.97;;;0.10;;
32641;SDS011;19323;56.072;9.698;2022-12-28T06:40:32;4.95;;;0.28;;
32641;SDS011;19323;56.072;9.698;2022-12-28T06:42:57;1.50;;;0.70;;
32641;SDS011;19323;56.072;9.698;2022-12-28T06:45:22;2.92;;;0.10;;
32641;SDS011;19323;56.072;9.698;2022-12-28T06:47:48;10.40;;;0.30;;
32641;SDS011;19323;56.072;9.698;2022-12-28T06:50:13;25.15;;;16.75;;
32641;SDS011;19323;56.072;9.698;2022-12-28T06:52:38;13.00;;;9.10;;
32641;SDS011;19323;56.072;9.698;2022-12-28T06:55:03;10.20;;;8.73;;
32641;SDS011;19323;56.072;9.698;2022-12-28T06:57:29;6.85;;;6.20;;
32641;SDS011;19323;56.072;9.698;2022-12-28T06:59:54;11.98;;;8.63;;
32641;SDS011;19323;56.072;9.698;2022-12-28T07:02:20;9.55;;;8.23;;
32641;SDS011;19323;56.072;9.698;2022-12-28T07:04:45;9.75;;;8.63;;
32641;SDS011;19323;56.072;9.698;2022-12-28T07:07:10;10.23;;;9.02;;
32641;SDS011;19323;56.072;9.698;2022-12-28T07:09:35;10.70;;;8.23;;
32641;SDS011;19323;56.072;9.698;2022-12-28T07:12:01;14.05;;;7.72;;
32641;SDS011;19323;56.072;9.698;2022-12-28T07:14:26;8.05;;;6.97;;
32641;SDS011;19323;56.072;9.698;2022-12-28T07:16:52;7.50;;;6.80;;
32641;SDS011;19323;56.072;9.698;2022-12-28T07:19:17;7.90;;;6.75;;
32641;SDS011;19323;56.072;9.698;2022-12-28T07:21:42;6.60;;;5.75;;
32641;SDS011;19323;56.072;9.698;2022-12-28T07:24:08;6.30;;;5.70;;
32641;SDS011;19323;56.072;9.698;2022-12-28T07:26:34;5.95;;;5.35;;
32641;SDS011;19323;56.072;9.698;2022-12-28T07:29:01;6.03;;;4.88;;
32641;SDS011;19323;56.072;9.698;2022-12-28T07:31:30;6.25;;;4.72;;
32641;SDS011;19323;56.072;9.698;2022-12-28T07:33:57;7.63;;;5.03;;
32641;SDS011;19323;56.072;9.698;2022-12-28T07:36:24;4.32;;;3.80;;
32641;SDS011;19323;56.072;9.698;2022-12-28T07:38:51;6.00;;;4.20;;
32641;SDS011;19323;56.072;9.698;2022-12-28T07:41:18;7.00;;;4.65;;
32641;SDS011;19323;56.072;9.698;2022-12-28T07:43:44;11.68;;;5.20;;
32641;SDS011;19323;56.072;9.698;2022-12-28T07:46:11;18.17;;;4.25;;
32641;SDS011;19323;56.072;9.698;2022-12-28T07:48:38;5.05;;;3.58;;
32641;SDS011;19323;56.072;9.698;2022-12-28T07:51:05;4.85;;;3.58;;
32641;SDS011;19323;56.072;9.698;2022-12-28T07:53:31;4.88;;;2.95;;
32641;SDS011;19323;56.072;9.698;2022-12-28T07:55:56;5.95;;;3.55;;
32641;SDS011;19323;56.072;9.698;2022-12-28T07:58:23;5.13;;;3.90;;
32641;SDS011;19323;56.072;9.698;2022-12-28T08:00:48;5.28;;;3.78;;
32641;SDS011;19323;56.072;9.698;2022-12-28T08:03:14;6.68;;;2.85;;
32641;SDS011;19323;56.072;9.698;2022-12-28T08:05:40;12.23;;;3.83;;
32641;SDS011;19323;56.072;9.698;2022-12-28T08:08:05;6.50;;;2.90;;
32641;SDS011;19323;56.072;9.698;2022-12-28T08:10:30;3.22;;;2.85;;
32641;SDS011;19323;56.072;9.698;2022-12-28T08:12:57;9.00;;;3.88;;
32641;SDS011;19323;56.072;9.698;2022-12-28T08:15:23;11.30;;;3.65;;
32641;SDS011;19323;56.072;9.698;2022-12-28T08:17:48;7.03;;;3.05;;
32641;SDS011;19323;56.072;9.698;2022-12-28T08:20:14;7.57;;;4.07;;
32641;SDS011;19323;56.072;9.698;2022-12-28T08:22:39;8.50;;;3.78;;
32641;SDS011;19323;56.072;9.698;2022-12-28T08:25:04;11.55;;;3.70;;
32641;SDS011;19323;56.072;9.698;2022-12-28T08:27:30;15.18;;;4.05;;
32641;SDS011;19323;56.072;9.698;2022-12-28T08:29:55;16.17;;;4.15;;
32641;SDS011;19323;56.072;9.698;2022-12-28T08:32:22;12.18;;;3.83;;
32641;SDS011;19323;56.072;9.698;2022-12-28T08:34:48;7.60;;;3.65;;
32641;SDS011;19323;56.072;9.698;2022-12-28T08:37:13;12.60;;;4.22;;
32641;SDS011;19323;56.072;9.698;2022-12-28T08:39:38;6.72;;;3.00;;
32641;SDS011;19323;56.072;9.698;2022-12-28T08:42:04;21.70;;;4.72;;
32641;SDS011;19323;56.072;9.698;2022-12-28T08:44:29;9.70;;;3.03;;
32641;SDS011;19323;56.072;9.698;2022-12-28T08:46:54;6.53;;;3.05;;
32641;SDS011;19323;56.072;9.698;2022-12-28T08:49:20;10.43;;;3.80;;
32641;SDS011;19323;56.072;9.698;2022-12-28T08:51:45;6.28;;;2.78;;
32641;SDS011;19323;56.072;9.698;2022-12-28T08:54:11;7.65;;;3.15;;
32641;SDS011;19323;56.072;9.698;2022-12-28T08:56:37;10.30;;;3.15;;
32641;SDS011;19323;56.072;9.698;2022-12-28T08:59:04;5.85;;;3.08;;
32641;SDS011;19323;56.072;9.698;2022-12-28T09:01:31;6.82;;;2.67;;
32641;SDS011;19323;56.072;9.698;2022-12-28T09:03:58;6.28;;;2.88;;
32641;SDS011;19323;56.072;9.698;2022-12-28T09:06:25;8.25;;;2.50;;
32641;SDS011;19323;56.072;9.698;2022-12-28T09:09:02;7.03;;;2.60;;
32641;SDS011;19323;56.072;9.698;2022-12-28T09:11:30;8.35;;;2.90;;
32641;SDS011;19323;56.072;9.698;2022-12-28T09:13:56;8.55;;;2.58;;
32641;SDS011;19323;56.072;9.698;2022-12-28T09:16:22;4.07;;;2.30;;
32641;SDS011;19323;56.072;9.698;2022-12-28T09:18:53;7.85;;;2.45;;
32641;SDS011;19323;56.072;9.698;2022-12-28T09:21:20;8.77;;;2.22;;
32641;SDS011;19323;56.072;9.698;2022-12-28T09:23:47;4.95;;;2.45;;
32641;SDS011;19323;56.072;9.698;2022-12-28T09:26:13;8.48;;;2.65;;
32641;SDS011;19323;56.072;9.698;2022-12-28T09:28:45;11.93;;;2.45;;
32641;SDS011;19323;56.072;9.698;2022-12-28T09:31:14;3.78;;;2.20;;
32641;SDS011;19323;56.072;9.698;2022-12-28T09:33:40;4.82;;;1.75;;
32641;SDS011;19323;56.072;9.698;2022-12-28T09:36:25;4.22;;;2.08;;
32641;SDS011;19323;56.072;9.698;2022-12-28T09:38:51;5.95;;;2.00;;
32641;SDS011;19323;56.072;9.698;2022-12-28T09:44:02;5.28;;;2.05;;
32641;SDS011;19323;56.072;9.698;2022-12-28T09:46:41;4.50;;;1.77;;
32641;SDS011;19323;56.072;9.698;2022-12-28T09:49:15;4.55;;;1.98;;
32641;SDS011;19323;56.072;9.698;2022-12-28T09:51:45;3.70;;;1.73;;
32641;SDS011;19323;56.072;9.698;2022-12-28T09:56:42;4.72;;;1.52;;
32641;SDS011;19323;56.072;9.698;2022-12-28T09:59:09;5.30;;;2.17;;
32641;SDS011;19323;56.072;9.698;2022-12-28T10:01:39;4.85;;;2.45;;
32641;SDS011;19323;56.072;9.698;2022-12-28T10:04:08;8.00;;;2.30;;
32641;SDS011;19323;56.072;9.698;2022-12-28T10:06:35;4.15;;;1.70;;
32641;SDS011;19323;56.072;9.698;2022-12-28T10:09:02;3.42;;;1.77;;
32641;SDS011;19323;56.072;9.698;2022-12-28T10:11:38;12.13;;;1.55;;
32641;SDS011;19323;56.072;9.698;2022-12-28T10:14:15;3.03;;;1.38;;
32641;SDS011;19323;56.072;9.698;2022-12-28T10:16:43;3.15;;;2.03;;
32641;SDS011;19323;56.072;9.698;2022-12-28T10:19:10;3.13;;;1.80;;
32641;SDS011;19323;56.072;9.698;2022-12-28T10:21:41;3.65;;;1.52;;
32641;SDS011;19323;56.072;9.698;2022-12-28T10:24:09;3.47;;;1.20;;
32641;SDS011;19323;56.072;9.698;2022-12-28T10:26:37;3.92;;;1.52;;
32641;SDS011;19323;56.072;9.698;2022-12-28T10:29:02;3.10;;;1.52;;
32641;SDS011;19323;56.072;9.698;2022-12-28T10:31:32;2.15;;;1.50;;
32641;SDS011;19323;56.072;9.698;2022-12-28T10:34:01;4.45;;;1.30;;
32641;SDS011;19323;56.072;9.698;2022-12-28T10:36:38;3.70;;;1.73;;
32641;SDS011;19323;56.072;9.698;2022-12-28T10:39:04;4.60;;;1.27;;
32641;SDS011;19323;56.072;9.698;2022-12-28T10:41:40;4.60;;;1.50;;
32641;SDS011;19323;56.072;9.698;2022-12-28T10:46:58;3.15;;;1.42;;
32641;SDS011;19323;56.072;9.698;2022-12-28T10:49:26;2.95;;;1.60;;
32641;SDS011;19323;56.072;9.698;2022-12-28T10:54:56;2.75;;;1.42;;
32641;SDS011;19323;56.072;9.698;2022-12-28T10:57:28;3.22;;;1.77;;
32641;SDS011;19323;56.072;9.698;2022-12-28T11:02:39;2.38;;;1.30;;
32641;SDS011;19323;56.072;9.698;2022-12-28T11:05:05;3.78;;;1.55;;
32641;SDS011;19323;56.072;9.698;2022-12-28T11:07:32;2.42;;;1.60;;
32641;SDS011;19323;56.072;9.698;2022-12-28T11:12:52;2.38;;;1.05;;
32641;SDS011;19323;56.072;9.698;2022-12-28T11:15:29;2.25;;;1.15;;
32641;SDS011;19323;56.072;9.698;2022-12-28T11:17:57;1.67;;;0.95;;
32641;SDS011;19323;56.072;9.698;2022-12-28T11:20:29;3.03;;;1.25;;
32641;SDS011;19323;56.072;9.698;2022-12-28T11:22:57;4.23;;;1.23;;
32641;SDS011;19323;56.072;9.698;2022-12-28T11:25:28;2.58;;;1.30;;
32641;SDS011;19323;56.072;9.698;2022-12-28T11:27:55;3.03;;;1.10;;
32641;SDS011;19323;56.072;9.698;2022-12-28T11:30:21;2.85;;;1.55;;
32641;SDS011;19323;56.072;9.698;2022-12-28T11:32:51;2.35;;;0.98;;
32641;SDS011;19323;56.072;9.698;2022-12-28T11:35:20;2.45;;;1.08;;
32641;SDS011;19323;56.072;9.698;2022-12-28T11:37:48;1.42;;;0.93;;
32641;SDS011;19323;56.072;9.698;2022-12-28T11:40:43;2.55;;;1.00;;
32641;SDS011;19323;56.072;9.698;2022-12-28T11:45:53;1.33;;;0.87;;
32641;SDS011;19323;56.072;9.698;2022-12-28T11:53:53;2.33;;;1.15;;
32641;SDS011;19323;56.072;9.698;2022-12-28T11:59:29;2.25;;;1.10;;
32641;SDS011;19323;56.072;9.698;2022-12-28T12:01:59;2.67;;;1.05;;
32641;SDS011;19323;56.072;9.698;2022-12-28T12:04:30;2.28;;;1.05;;
32641;SDS011;19323;56.072;9.698;2022-12-28T12:09:38;1.63;;;0.70;;
32641;SDS011;19323;56.072;9.698;2022-12-28T12:14:45;1.88;;;0.90;;
32641;SDS011;19323;56.072;9.698;2022-12-28T12:20:17;2.40;;;0.80;;
32641;SDS011;19323;56.072;9.698;2022-12-28T12:22:48;3.83;;;0.85;;
32641;SDS011;19323;56.072;9.698;2022-12-28T12:25:23;2.15;;;1.08;;
32641;SDS011;19323;56.072;9.698;2022-12-28T12:28:05;1.40;;;0.60;;
32641;SDS011;19323;56.072;9.698;2022-12-28T12:30:51;1.65;;;1.08;;
32641;SDS011;19323;56.072;9.698;2022-12-28T12:33:22;2.08;;;0.70;;
32641;SDS011;19323;56.072;9.698;2022-12-28T12:35:58;1.35;;;0.80;;
32641;SDS011;19323;56.072;9.698;2022-12-28T12:41:16;1.58;;;0.80;;
32641;SDS011;19323;56.072;9.698;2022-12-28T12:49:11;1.92;;;0.95;;
32641;SDS011;19323;56.072;9.698;2022-12-28T13:03:50;3.00;;;1.05;;
32641;SDS011;19323;56.072;9.698;2022-12-28T13:06:20;2.45;;;0.85;;
32641;SDS011;19323;56.072;9.698;2022-12-28T13:08:55;1.75;;;0.90;;
32641;SDS011;19323;56.072;9.698;2022-12-28T13:11:23;1.60;;;0.70;;
32641;SDS011;19323;56.072;9.698;2022-12-28T13:13:49;1.23;;;0.82;;
32641;SDS011;19323;56.072;9.698;2022-12-28T13:16:21;1.67;;;0.70;;
32641;SDS011;19323;56.072;9.698;2022-12-28T13:18:57;1.38;;;0.70;;
32641;SDS011;19323;56.072;9.698;2022-12-28T13:21:43;0.88;;;0.50;;
32641;SDS011;19323;56.072;9.698;2022-12-28T13:24:26;1.37;;;0.73;;
32641;SDS011;19323;56.072;9.698;2022-12-28T13:26:54;1.35;;;0.70;;
32641;SDS011;19323;56.072;9.698;2022-12-28T13:29:21;1.63;;;0.65;;
32641;SDS011;19323;56.072;9.698;2022-12-28T13:31:49;1.75;;;0.50;;
32641;SDS011;19323;56.072;9.698;2022-12-28T13:36:56;2.75;;;0.85;;
32641;SDS011;19323;56.072;9.698;2022-12-28T13:39:30;0.88;;;0.50;;
32641;SDS011;19323;56.072;9.698;2022-12-28T13:42:03;2.47;;;0.85;;
32641;SDS011;19323;56.072;9.698;2022-12-28T13:44:47;0.90;;;0.47;;
32641;SDS011;19323;56.072;9.698;2022-12-28T13:47:36;1.88;;;0.65;;
32641;SDS011;19323;56.072;9.698;2022-12-28T13:50:05;0.90;;;0.45;;
32641;SDS011;19323;56.072;9.698;2022-12-28T13:52:39;2.55;;;1.42;;
32641;SDS011;19323;56.072;9.698;2022-12-28T13:55:15;3.90;;;0.85;;
32641;SDS011;19323;56.072;9.698;2022-12-28T13:57:44;0.80;;;0.40;;
32641;SDS011;19323;56.072;9.698;2022-12-28T14:00:17;3.03;;;1.20;;
32641;SDS011;19323;56.072;9.698;2022-12-28T14:02:44;1.35;;;0.57;;
32641;SDS011;19323;56.072;9.698;2022-12-28T14:05:15;1.95;;;0.60;;
32641;SDS011;19323;56.072;9.698;2022-12-28T14:07:42;1.75;;;0.55;;
32641;SDS011;19323;56.072;9.698;2022-12-28T14:10:07;1.40;;;0.60;;
32641;SDS011;19323;56.072;9.698;2022-12-28T14:12:34;1.90;;;0.50;;
32641;SDS011;19323;56.072;9.698;2022-12-28T14:15:00;0.85;;;0.60;;
32641;SDS011;19323;56.072;9.698;2022-12-28T14:17:26;0.85;;;0.52;;
32641;SDS011;19323;56.072;9.698;2022-12-28T14:19:52;1.55;;;0.68;;
32641;SDS011;19323;56.072;9.698;2022-12-28T14:22:39;1.08;;;0.47;;
32641;SDS011;19323;56.072;9.698;2022-12-28T14:25:09;2.97;;;0.70;;
32641;SDS011;19323;56.072;9.698;2022-12-28T14:27:36;2.75;;;0.50;;
32641;SDS011;19323;56.072;9.698;2022-12-28T14:30:19;0.88;;;0.40;;
32641;SDS011;19323;56.072;9.698;2022-12-28T14:32:54;1.13;;;0.40;;
32641;SDS011;19323;56.072;9.698;2022-12-28T14:35:22;0.82;;;0.50;;
32641;SDS011;19323;56.072;9.698;2022-12-28T14:37:51;0.80;;;0.40;;
32641;SDS011;19323;56.072;9.698;2022-12-28T14:40:27;1.90;;;0.90;;
32641;SDS011;19323;56.072;9.698;2022-12-28T14:43:08;1.63;;;0.50;;
32641;SDS011;19323;56.072;9.698;2022-12-28T14:45:43;0.98;;;0.50;;
32641;SDS011;19323;56.072;9.698;2022-12-28T14:53:26;1.17;;;0.60;;
32641;SDS011;19323;56.072;9.698;2022-12-28T14:58:19;1.23;;;0.60;;
32641;SDS011;19323;56.072;9.698;2022-12-28T15:00:57;1.02;;;0.32;;
32641;SDS011;19323;56.072;9.698;2022-12-28T15:03:28;1.10;;;0.38;;
32641;SDS011;19323;56.072;9.698;2022-12-28T15:05:57;1.05;;;0.40;;
32641;SDS011;19323;56.072;9.698;2022-12-28T15:08:24;3.17;;;0.43;;
32641;SDS011;19323;56.072;9.698;2022-12-28T15:10:54;0.93;;;0.65;;
32641;SDS011;19323;56.072;9.698;2022-12-28T15:13:21;1.65;;;0.50;;
32641;SDS011;19323;56.072;9.698;2022-12-28T15:15:52;1.48;;;0.40;;
32641;SDS011;19323;56.072;9.698;2022-12-28T15:18:19;1.77;;;0.50;;
32641;SDS011;19323;56.072;9.698;2022-12-28T15:20:44;1.20;;;0.50;;
32641;SDS011;19323;56.072;9.698;2022-12-28T15:23:10;0.85;;;0.40;;
32641;SDS011;19323;56.072;9.698;2022-12-28T15:25:35;1.15;;;0.45;;
32641;SDS011;19323;56.072;9.698;2022-12-28T15:28:00;1.00;;;0.30;;
32641;SDS011;19323;56.072;9.698;2022-12-28T15:30:26;0.98;;;0.40;;
32641;SDS011;19323;56.072;9.698;2022-12-28T15:32:51;1.45;;;0.35;;
32641;SDS011;19323;56.072;9.698;2022-12-28T15:35:17;2.47;;;0.60;;
32641;SDS011;19323;56.072;9.698;2022-12-28T15:37:42;1.10;;;0.40;;
32641;SDS011;19323;56.072;9.698;2022-12-28T15:40:08;1.02;;;0.43;;
32641;SDS011;19323;56.072;9.698;2022-12-28T15:42:34;1.10;;;0.40;;
32641;SDS011;19323;56.072;9.698;2022-12-28T15:44:59;0.95;;;0.52;;
32641;SDS011;19323;56.072;9.698;2022-12-28T15:47:24;1.95;;;0.80;;
32641;SDS011;19323;56.072;9.698;2022-12-28T15:49:50;1.25;;;0.40;;
32641;SDS011;19323;56.072;9.698;2022-12-28T15:52:15;1.60;;;1.10;;
32641;SDS011;19323;56.072;9.698;2022-12-28T15:54:40;3.65;;;0.75;;
32641;SDS011;19323;56.072;9.698;2022-12-28T15:57:06;0.77;;;0.40;;
32641;SDS011;19323;56.072;9.698;2022-12-28T15:59:31;7.53;;;0.75;;
32641;SDS011;19323;56.072;9.698;2022-12-28T16:01:56;4.57;;;1.33;;
32641;SDS011;19323;56.072;9.698;2022-12-28T16:04:21;5.45;;;1.13;;
32641;SDS011;19323;56.072;9.698;2022-12-28T16:06:47;8.82;;;0.80;;
32641;SDS011;19323;56.072;9.698;2022-12-28T16:09:12;9.73;;;1.15;;
32641;SDS011;19323;56.072;9.698;2022-12-28T16:11:37;4.38;;;0.88;;
32641;SDS011;19323;56.072;9.698;2022-12-28T16:14:04;4.70;;;1.00;;
32641;SDS011;19323;56.072;9.698;2022-12-28T16:16:33;7.07;;;1.35;;
32641;SDS011;19323;56.072;9.698;2022-12-28T16:19:02;4.47;;;0.57;;
32641;SDS011;19323;56.072;9.698;2022-12-28T16:21:28;4.32;;;0.75;;
32641;SDS011;19323;56.072;9.698;2022-12-28T16:23:54;2.30;;;0.80;;
32641;SDS011;19323;56.072;9.698;2022-12-28T16:26:20;6.55;;;0.95;;
32641;SDS011;19323;56.072;9.698;2022-12-28T16:28:46;3.28;;;1.02;;
32641;SDS011;19323;56.072;9.698;2022-12-28T16:31:31;2.72;;;0.60;;